Time;durP1;ratioP1;P1;durP2;ratioP2;P2;SDS_P1;SDS_P2;PMS_P1;PMS_P2;Temp;Humidity;BMP_temperature;BMP_pressure;BME280_temperature;BME280_humidity;BME280_pressure;Samples;Min_cycle;Max_cycle;Signal;HPM_P1;HPM_P2
2023/07/26 00:00:33;;;;;;;1.92;1.35;;;;;;;16.98;38.06;100739.06;5066878;28;20041;-77
2023/07/26 00:03:01;;;;;;;2.65;1.50;;;;;;;16.98;37.83;100742.69;5070683;28;20068;-78
2023/07/26 00:05:30;;;;;;;2.50;1.40;;;;;;;16.96;37.88;100733.69;5050149;28;20048;-78
2023/07/26 00:07:58;;;;;;;2.50;1.20;;;;;;;16.94;38.00;100733.00;5060171;28;20052;-78
2023/07/26 00:10:26;;;;;;;2.17;1.40;;;;;;;16.93;38.51;100734.03;5073626;28;20040;-78
2023/07/26 00:12:54;;;;;;;2.13;1.35;;;;;;;16.92;38.34;100734.19;5074118;28;20128;-78
2023/07/26 00:15:23;;;;;;;3.17;1.42;;;;;;;16.94;38.66;100735.75;5055297;28;20064;-78
2023/07/26 00:17:51;;;;;;;3.05;1.35;;;;;;;16.91;38.58;100735.22;5053017;28;20510;-78
2023/07/26 00:20:19;;;;;;;2.22;1.40;;;;;;;16.91;38.18;100735.22;5074625;28;20037;-78
2023/07/26 00:22:47;;;;;;;2.05;1.33;;;;;;;16.90;38.24;100730.78;5054991;28;20055;-78
2023/07/26 00:25:15;;;;;;;2.15;1.30;;;;;;;16.90;38.35;100736.31;5054108;28;20077;-78
2023/07/26 00:27:44;;;;;;;2.60;1.40;;;;;;;16.90;38.37;100742.69;5047498;28;20040;-78
2023/07/26 00:30:15;;;;;;;3.17;1.50;;;;;;;16.92;39.21;100742.50;5053469;28;20086;-78
2023/07/26 00:32:44;;;;;;;3.00;1.30;;;;;;;16.91;38.89;100740.75;5074891;28;20075;-78
2023/07/26 00:35:20;;;;;;;2.53;1.33;;;;;;;16.93;39.53;100747.84;5077687;28;20182;-78
2023/07/26 00:37:48;;;;;;;2.80;1.40;;;;;;;16.88;38.52;100747.53;5050763;28;20047;-78
2023/07/26 00:40:19;;;;;;;2.95;1.33;;;;;;;16.90;38.76;100758.41;5073265;28;20081;-78
2023/07/26 00:42:47;;;;;;;2.88;1.45;;;;;;;16.89;38.36;100751.16;5069376;28;20028;-78
2023/07/26 00:45:15;;;;;;;1.90;1.30;;;;;;;16.89;38.39;100756.69;5070058;28;20041;-78
2023/07/26 00:47:45;;;;;;;3.35;1.52;;;;;;;16.91;38.92;100749.06;5048183;28;20136;-78
2023/07/26 00:50:13;;;;;;;3.38;1.58;;;;;;;16.88;38.44;100755.81;5069292;28;20071;-78
2023/07/26 00:52:41;;;;;;;2.88;1.63;;;;;;;16.89;38.49;100760.31;5067835;28;20067;-78
2023/07/26 00:55:10;;;;;;;2.58;1.70;;;;;;;16.89;39.20;100754.78;5076499;28;20056;-77
2023/07/26 00:57:38;;;;;;;3.63;1.77;;;;;;;16.88;38.41;100755.81;5068816;28;20106;-78
2023/07/26 01:00:08;;;;;;;4.47;1.80;;;;;;;16.89;38.17;100753.94;5056664;28;20045;-78
2023/07/26 01:02:36;;;;;;;3.25;1.65;;;;;;;16.87;38.36;100754.09;5049586;28;20045;-78
2023/07/26 01:05:07;;;;;;;2.72;1.67;;;;;;;16.89;38.93;100752.03;5045577;28;20068;-78
2023/07/26 01:07:42;;;;;;;3.03;1.60;;;;;;;16.88;39.39;100755.81;5050183;28;20041;-78
2023/07/26 01:10:17;;;;;;;2.92;1.40;;;;;;;16.89;39.41;100756.69;5053092;28;20082;-78
2023/07/26 01:12:50;;;;;;;2.85;1.45;;;;;;;16.87;39.20;100747.72;5072078;28;20592;-78
2023/07/26 01:15:22;;;;;;;2.55;1.35;;;;;;;16.84;38.78;100754.44;5054000;28;20131;-77
2023/07/26 01:18:07;;;;;;;2.40;1.40;;;;;;;16.85;38.93;100756.16;5057280;28;20130;-78
2023/07/26 01:20:37;;;;;;;2.95;1.60;;;;;;;16.85;38.68;100763.59;5074465;28;20060;-78
2023/07/26 01:23:06;;;;;;;2.88;1.25;;;;;;;16.84;39.00;100757.22;5055260;28;20470;-78
2023/07/26 01:25:34;;;;;;;3.03;1.70;;;;;;;16.82;38.83;100751.03;5050719;28;20045;-78
2023/07/26 01:28:06;;;;;;;2.25;1.42;;;;;;;16.83;39.07;100754.63;5075000;28;20036;-78
2023/07/26 01:30:35;;;;;;;2.83;1.92;;;;;;;16.81;38.74;100746.53;5068323;28;20128;-78
2023/07/26 01:33:06;;;;;;;2.17;1.40;;;;;;;16.83;39.29;100749.94;5069614;28;20394;-78
2023/07/26 01:35:36;;;;;;;2.45;1.55;;;;;;;16.81;39.29;100741.00;5049130;28;20128;-78
2023/07/26 01:38:06;;;;;;;3.45;1.55;;;;;;;16.81;38.78;100748.44;5068570;28;20043;-78
2023/07/26 01:40:36;;;;;;;2.83;1.60;;;;;;;16.80;38.63;100741.19;5072788;28;20097;-78
2023/07/26 01:43:04;;;;;;;2.60;1.35;;;;;;;16.80;39.15;100746.69;5048667;28;20051;-78
2023/07/26 01:45:32;;;;;;;3.08;1.50;;;;;;;16.79;39.21;100743.06;5065474;28;20046;-78
2023/07/26 01:48:00;;;;;;;3.00;1.38;;;;;;;16.78;39.25;100740.47;5070865;28;20121;-78
2023/07/26 01:50:28;;;;;;;2.20;1.30;;;;;;;16.78;39.06;100740.47;5046666;28;20045;-77
2023/07/26 01:52:59;;;;;;;2.53;1.42;;;;;;;16.77;39.04;100736.00;5047216;28;20394;-78
2023/07/26 01:55:28;;;;;;;1.95;1.30;;;;;;;16.78;39.27;100738.59;5068354;28;20047;-78
2023/07/26 01:57:56;;;;;;;2.78;1.58;;;;;;;16.77;38.84;100738.75;5071142;28;20040;-78
2023/07/26 02:00:24;;;;;;;2.63;1.50;;;;;;;16.75;39.02;100749.13;5071232;28;20494;-78
2023/07/26 02:02:53;;;;;;;3.28;1.50;;;;;;;16.75;38.85;100746.34;5062170;28;20127;-77
2023/07/26 02:05:21;;;;;;;3.08;1.63;;;;;;;16.74;39.18;100745.53;5050229;28;20056;-78
2023/07/26 02:07:49;;;;;;;3.10;1.60;;;;;;;16.72;38.91;100744.81;5050831;28;20040;-77
2023/07/26 02:10:17;;;;;;;2.80;1.50;;;;;;;16.72;39.26;100746.72;5053339;28;20382;-77
2023/07/26 02:12:46;;;;;;;2.53;1.58;;;;;;;16.72;38.86;100738.44;5057554;28;20483;-77
2023/07/26 02:15:14;;;;;;;2.70;1.48;;;;;;;16.70;39.43;100744.13;5052825;28;20071;-78
2023/07/26 02:17:42;;;;;;;2.40;1.55;;;;;;;16.70;39.36;100748.78;5054110;28;20604;-78
2023/07/26 02:20:11;;;;;;;4.00;1.50;;;;;;;16.69;39.37;100747.06;5071680;28;20053;-78
2023/07/26 02:22:39;;;;;;;4.47;1.60;;;;;;;16.67;39.07;100738.94;5051811;28;20075;-77
2023/07/26 02:25:07;;;;;;;2.40;1.50;;;;;;;16.67;39.36;100747.25;5053371;28;20033;-78
2023/07/26 02:27:35;;;;;;;2.83;1.50;;;;;;;16.66;39.25;100751.03;5071739;28;20450;-77
2023/07/26 02:30:06;;;;;;;3.45;1.50;;;;;;;16.68;38.96;100748.97;5047549;28;20044;-77
2023/07/26 02:32:34;;;;;;;5.22;1.92;;;;;;;16.65;39.29;100749.34;5052942;28;20273;-77
2023/07/26 02:35:02;;;;;;;2.88;1.60;;;;;;;16.63;39.38;100746.75;5058345;28;20127;-78
2023/07/26 02:37:30;;;;;;;3.40;1.70;;;;;;;16.63;39.01;100743.97;5054523;28;20044;-78
2023/07/26 02:39:58;;;;;;;2.78;1.48;;;;;;;16.62;39.52;100749.69;5048686;28;20041;-77
2023/07/26 02:42:27;;;;;;;3.08;1.58;;;;;;;16.62;39.01;100745.03;5069323;28;20117;-78
2023/07/26 02:44:55;;;;;;;3.10;1.70;;;;;;;16.61;39.11;100746.06;5068154;28;20147;-77
2023/07/26 02:47:25;;;;;;;4.90;1.90;;;;;;;16.62;39.35;100744.16;5053902;28;20048;-78
2023/07/26 02:49:53;;;;;;;3.30;1.48;;;;;;;16.60;39.14;100741.56;5046592;28;20041;-78
2023/07/26 02:52:20;;;;;;;3.72;1.60;;;;;;;16.59;39.52;100742.59;5050204;28;20072;-78
2023/07/26 02:54:48;;;;;;;3.47;1.50;;;;;;;16.59;39.62;100745.38;5047028;28;20067;-78
2023/07/26 02:57:16;;;;;;;4.25;1.60;;;;;;;16.59;39.36;100744.50;5067981;28;20040;-77
2023/07/26 02:59:44;;;;;;;4.13;1.80;;;;;;;16.58;39.43;100740.00;5054663;28;20097;-78
2023/07/26 03:02:14;;;;;;;4.47;1.70;;;;;;;16.57;39.22;100735.53;5057444;28;20051;-78
2023/07/26 03:04:44;;;;;;;3.10;1.90;;;;;;;16.58;39.01;100738.09;5073101;28;20068;-78
2023/07/26 03:07:12;;;;;;;4.05;1.73;;;;;;;16.55;39.01;100730.19;5052382;28;20040;-78
2023/07/26 03:09:39;;;;;;;5.38;1.80;;;;;;;16.55;39.40;100737.63;5071259;28;20040;-78
2023/07/26 03:12:08;;;;;;;2.85;1.52;;;;;;;16.54;39.18;100739.50;5072060;28;20403;-78
2023/07/26 03:14:40;;;;;;;3.95;2.08;;;;;;;16.53;39.94;100745.22;5050527;28;20040;-78
2023/07/26 03:17:09;;;;;;;2.78;1.83;;;;;;;16.51;39.49;100742.63;5048270;28;20044;-77
2023/07/26 03:19:51;;;;;;;2.78;1.70;;;;;;;16.53;39.95;100746.06;5073997;28;20051;-77
2023/07/26 03:22:19;;;;;;;3.08;1.95;;;;;;;16.51;39.91;100752.81;5072117;28;20037;-78
2023/07/26 03:24:47;;;;;;;5.57;2.00;;;;;;;16.51;39.59;100752.81;5054520;28;20040;-78
2023/07/26 03:27:15;;;;;;;2.90;1.70;;;;;;;16.51;39.68;100755.56;5049396;28;20068;-78
2023/07/26 03:29:43;;;;;;;5.28;1.73;;;;;;;16.51;39.53;100758.31;5056433;28;20048;-77
2023/07/26 03:32:12;;;;;;;3.67;1.67;;;;;;;16.50;39.94;100754.69;5049484;28;20040;-78
2023/07/26 03:34:40;;;;;;;3.00;1.70;;;;;;;16.49;39.83;100761.28;5059330;28;20079;-78
2023/07/26 03:37:10;;;;;;;4.38;1.85;;;;;;;16.51;39.72;100766.63;5046431;28;20041;-78
2023/07/26 03:39:38;;;;;;;3.50;1.60;;;;;;;16.48;39.59;100764.22;5054758;28;20051;-78
2023/07/26 03:42:07;;;;;;;4.25;2.00;;;;;;;16.48;39.46;100765.09;5054479;28;20041;-78
2023/07/26 03:44:35;;;;;;;4.25;1.83;;;;;;;16.47;39.89;100771.66;5070707;28;20059;-78
2023/07/26 03:47:03;;;;;;;3.50;2.13;;;;;;;16.48;39.67;100800.13;5068359;28;20442;-78
2023/07/26 03:49:31;;;;;;;3.10;1.80;;;;;;;16.47;39.87;100807.56;5070185;28;20710;-76
2023/07/26 03:51:59;;;;;;;4.00;1.98;;;;;;;16.46;39.68;100821.53;5076958;28;20090;-75
2023/07/26 03:54:29;;;;;;;3.63;1.90;;;;;;;16.45;40.58;100812.38;5071237;28;20098;-76
2023/07/26 03:57:00;;;;;;;3.88;1.80;;;;;;;16.41;40.61;100818.44;5052845;28;20076;-76
2023/07/26 03:59:28;;;;;;;3.88;1.83;;;;;;;16.38;40.47;100808.59;5074353;28;20118;-75
2023/07/26 04:01:55;;;;;;;3.42;1.92;;;;;;;16.35;41.43;100811.69;5052891;28;20075;-76
2023/07/26 04:04:23;;;;;;;4.03;2.30;;;;;;;16.33;41.09;100799.13;5071639;28;20106;-76
2023/07/26 04:06:51;;;;;;;4.30;2.20;;;;;;;16.30;42.04;100796.69;5070429;28;20490;-76
2023/07/26 04:09:19;;;;;;;3.08;1.85;;;;;;;16.26;42.15;100799.78;5074254;28;20479;-76
2023/07/26 04:11:48;;;;;;;3.10;2.05;;;;;;;16.25;41.63;100798.06;5075616;28;20064;-76
2023/07/26 04:14:16;;;;;;;4.53;2.33;;;;;;;16.21;41.91;100790.31;5057324;28;20064;-76
2023/07/26 04:16:44;;;;;;;3.67;2.00;;;;;;;16.19;42.40;100790.47;5065507;28;20116;-76
2023/07/26 04:19:12;;;;;;;3.72;2.10;;;;;;;16.17;42.44;100791.66;5076434;28;20487;-76
2023/07/26 04:21:40;;;;;;;4.35;1.83;;;;;;;16.15;42.76;100790.97;5070335;28;20131;-76
2023/07/26 04:24:08;;;;;;;2.78;1.98;;;;;;;16.11;43.07;100793.19;5068361;28;20083;-76
2023/07/26 04:26:36;;;;;;;5.35;2.60;;;;;;;16.10;43.17;100788.72;5071554;28;20062;-76
2023/07/26 04:29:05;;;;;;;3.30;2.00;;;;;;;16.10;43.36;100791.47;5068148;28;20049;-76
2023/07/26 04:31:33;;;;;;;4.68;2.30;;;;;;;16.06;43.64;100790.09;5071595;28;20040;-76
2023/07/26 04:34:01;;;;;;;4.57;2.17;;;;;;;16.05;43.23;100791.13;5072976;28;20132;-76
2023/07/26 04:36:29;;;;;;;4.25;2.20;;;;;;;16.03;43.20;100793.19;5060889;28;20550;-76
2023/07/26 04:38:58;;;;;;;5.18;2.38;;;;;;;16.01;43.39;100784.22;5055689;28;20117;-76
2023/07/26 04:41:25;;;;;;;4.30;1.85;;;;;;;16.01;43.20;100788.88;5085178;28;20040;-76
2023/07/26 04:43:53;;;;;;;3.95;2.03;;;;;;;15.99;43.39;100790.97;5046013;28;20126;-76
2023/07/26 04:46:23;;;;;;;3.08;1.85;;;;;;;15.99;43.31;100786.31;5069979;28;20530;-76
2023/07/26 04:48:51;;;;;;;3.95;2.08;;;;;;;15.97;43.48;100793.03;5063397;28;20052;-76
2023/07/26 04:51:19;;;;;;;4.13;2.10;;;;;;;15.95;43.79;100792.31;5063314;28;20072;-76
2023/07/26 04:53:47;;;;;;;4.13;2.20;;;;;;;15.94;44.28;100796.13;5058598;28;20047;-76
2023/07/26 04:56:15;;;;;;;4.38;2.35;;;;;;;15.93;44.31;100795.25;5067331;28;20071;-76
2023/07/26 04:58:44;;;;;;;3.80;2.00;;;;;;;15.92;43.87;100796.28;5050878;28;20075;-76
2023/07/26 05:01:11;;;;;;;3.08;2.17;;;;;;;15.91;44.15;100802.00;5048827;28;20649;-76
2023/07/26 05:03:41;;;;;;;3.97;2.35;;;;;;;15.92;44.61;100806.50;5069430;28;20392;-77
2023/07/26 05:06:11;;;;;;;3.22;2.15;;;;;;;15.91;44.80;100802.00;5067813;28;20048;-76
2023/07/26 05:08:39;;;;;;;3.55;2.20;;;;;;;15.88;44.62;100809.56;5066836;28;20043;-76
2023/07/26 05:11:07;;;;;;;4.43;2.05;;;;;;;15.86;44.36;100806.13;5067728;28;20151;-76
2023/07/26 05:13:35;;;;;;;3.50;2.00;;;;;;;15.86;44.96;100810.78;5063581;28;20675;-76
2023/07/26 05:16:03;;;;;;;3.92;1.95;;;;;;;15.85;44.99;100809.03;5062068;28;20132;-76
2023/07/26 05:18:31;;;;;;;2.92;2.05;;;;;;;15.83;44.80;100803.72;5059768;28;20439;-76
2023/07/26 05:21:00;;;;;;;3.72;2.03;;;;;;;15.84;45.08;100807.31;5040149;28;20068;-77
2023/07/26 05:23:28;;;;;;;5.30;1.95;;;;;;;15.80;44.62;100806.81;5062571;28;20036;-77
2023/07/26 05:25:56;;;;;;;3.38;1.90;;;;;;;15.80;44.77;100800.41;5059784;28;20449;-76
2023/07/26 05:28:24;;;;;;;3.10;1.75;;;;;;;15.78;44.74;100808.00;5065790;28;20045;-76
2023/07/26 05:30:57;;;;;;;3.22;1.60;;;;;;;15.80;45.30;100806.81;5066980;28;20044;-76
2023/07/26 05:33:25;;;;;;;;;;;;;;;15.49;45.24;100816.72;5072601;28;20044;-76
2023/07/26 05:35:53;;;;;;;3.67;1.80;;;;;;;15.70;44.68;100805.22;5059962;28;19920;-77
2023/07/26 05:38:23;;;;;;;3.08;1.75;;;;;;;15.75;45.26;100813.88;5072081;28;20127;-76
2023/07/26 05:40:51;;;;;;;2.95;1.63;;;;;;;15.72;44.90;100809.56;5068804;28;20045;-77
2023/07/26 05:43:19;;;;;;;3.30;2.00;;;;;;;15.72;44.80;100819.72;5067471;28;20033;-77
2023/07/26 05:45:47;;;;;;;3.55;2.10;;;;;;;15.72;45.94;100816.97;5072968;28;20048;-77
2023/07/26 05:48:15;;;;;;;3.50;2.00;;;;;;;15.72;45.63;100811.44;5071016;28;20044;-77
2023/07/26 05:50:47;;;;;;;3.45;1.85;;;;;;;15.72;45.75;100816.97;5073601;28;20097;-77
2023/07/26 05:53:15;;;;;;;2.97;1.97;;;;;;;15.72;45.71;100820.59;5050757;28;20045;-77
2023/07/26 05:55:45;;;;;;;4.95;1.88;;;;;;;15.81;46.28;100819.56;5066009;28;20097;-77
2023/07/26 05:58:13;;;;;;;3.75;2.00;;;;;;;15.83;46.38;100812.00;5048277;28;20044;-79
2023/07/26 06:00:41;;;;;;;3.33;1.65;;;;;;;15.90;46.69;100812.16;5047382;28;20068;-78
2023/07/26 06:03:09;;;;;;;3.80;1.80;;;;;;;15.96;47.02;100816.13;5071141;28;20043;-79
2023/07/26 06:05:37;;;;;;;3.72;2.03;;;;;;;16.02;47.02;100816.31;5052380;28;20402;-79
2023/07/26 06:08:05;;;;;;;3.10;1.90;;;;;;;16.12;46.90;100811.50;5070768;28;20036;-78
2023/07/26 06:10:34;;;;;;;3.58;1.73;;;;;;;16.19;46.44;100820.84;5064149;28;20036;-79
2023/07/26 06:13:04;;;;;;;3.42;1.83;;;;;;;16.29;46.73;100817.91;5067506;28;20049;-79
2023/07/26 06:15:35;;;;;;;3.75;1.65;;;;;;;16.36;46.45;100815.31;5072482;28;20051;-79
2023/07/26 06:18:03;;;;;;;2.78;1.80;;;;;;;16.44;46.09;100816.19;5054225;28;20043;-80
2023/07/26 06:20:31;;;;;;;3.13;1.70;;;;;;;16.52;45.78;100823.59;5064856;28;20040;-80
2023/07/26 06:23:01;;;;;;;2.35;1.45;;;;;;;16.58;45.94;100823.75;5045703;28;20509;-79
2023/07/26 06:25:29;;;;;;;3.20;1.67;;;;;;;16.63;45.95;100820.50;5070806;28;20054;-78
2023/07/26 06:27:57;;;;;;;3.55;1.77;;;;;;;16.69;45.42;100827.22;5067614;28;20041;-78
2023/07/26 06:30:26;;;;;;;2.15;1.52;;;;;;;16.75;45.78;100834.78;5064243;28;20134;-78
2023/07/26 06:32:54;;;;;;;3.38;1.60;;;;;;;16.77;45.75;100832.72;5065530;28;20070;-77
2023/07/26 06:35:23;;;;;;;2.75;1.63;;;;;;;16.80;45.86;100833.25;5071458;28;20132;-78
2023/07/26 06:37:52;;;;;;;3.15;1.80;;;;;;;16.82;45.46;100831.19;5067079;28;20507;-77
2023/07/26 06:40:20;;;;;;;2.90;1.98;;;;;;;16.86;45.84;100834.44;5070799;28;20047;-77
2023/07/26 06:42:48;;;;;;;4.28;1.90;;;;;;;16.90;45.88;100838.59;5078458;28;20076;-77
2023/07/26 06:45:17;;;;;;;4.05;2.08;;;;;;;16.92;45.42;100831.81;5069804;28;20047;-77
2023/07/26 06:47:49;;;;;;;4.20;2.17;;;;;;;16.96;45.12;100838.75;5067036;28;20052;-77
2023/07/26 06:50:17;;;;;;;3.67;2.00;;;;;;;16.96;45.34;100838.75;5070406;28;20040;-77
2023/07/26 06:52:45;;;;;;;4.47;2.13;;;;;;;16.99;45.45;100837.53;5048897;28;20491;-78
2023/07/26 06:55:13;;;;;;;3.33;1.98;;;;;;;17.00;44.83;100839.25;5074715;28;20075;-78
2023/07/26 06:57:41;;;;;;;2.80;1.85;;;;;;;17.01;45.30;100832.69;5065169;28;20499;-77
2023/07/26 07:00:12;;;;;;;4.47;2.10;;;;;;;17.04;44.89;100842.56;5069443;28;20032;-77
2023/07/26 07:02:41;;;;;;;4.75;2.15;;;;;;;17.02;44.84;100843.59;5073007;28;20558;-77
2023/07/26 07:05:11;;;;;;;3.47;2.45;;;;;;;17.07;44.63;100848.59;5070685;28;20417;-77
2023/07/26 07:07:39;;;;;;;4.55;2.45;;;;;;;17.05;45.08;100850.69;5047282;28;20446;-77
2023/07/26 07:10:07;;;;;;;5.05;2.53;;;;;;;17.08;44.56;100852.19;5067868;28;20045;-75
2023/07/26 07:12:36;;;;;;;4.55;2.45;;;;;;;17.08;45.34;100855.81;5069380;28;20064;-76
2023/07/26 07:15:04;;;;;;;3.92;2.50;;;;;;;17.11;45.03;100858.25;5074010;28;20629;-77
2023/07/26 07:17:32;;;;;;;4.25;2.30;;;;;;;17.13;45.06;100858.94;5074004;28;20121;-78
2023/07/26 07:20:00;;;;;;;3.80;2.22;;;;;;;17.17;45.66;100859.44;5071005;28;20041;-80
2023/07/26 07:22:30;;;;;;;3.28;2.38;;;;;;;17.23;45.27;100861.50;5056129;28;20074;-80
2023/07/26 07:24:58;;;;;;;3.70;2.45;;;;;;;17.27;45.70;100854.56;5069355;28;20041;-80
2023/07/26 07:27:26;;;;;;;4.55;2.58;;;;;;;17.32;45.77;100861.28;5064905;28;20102;-81
2023/07/26 07:29:54;;;;;;;3.92;2.33;;;;;;;17.40;45.50;100863.19;5072367;28;20398;-80
2023/07/26 07:32:22;;;;;;;6.28;2.90;;;;;;;17.48;44.90;100868.69;5069598;28;20056;-80
2023/07/26 07:34:50;;;;;;;4.22;2.80;;;;;;;17.55;45.29;100866.06;5069169;28;20032;-82
2023/07/26 07:37:18;;;;;;;3.80;2.55;;;;;;;17.63;45.08;100863.25;5051012;28;20033;-80
2023/07/26 07:39:48;;;;;;;4.65;2.80;;;;;;;17.71;45.12;100863.22;5048530;28;20445;-80
2023/07/26 07:42:16;;;;;;;5.35;2.58;;;;;;;17.76;44.43;100860.78;5073537;28;20040;-80
2023/07/26 07:44:43;;;;;;;4.28;2.83;;;;;;;17.84;44.90;100857.09;5074174;28;20105;-77
2023/07/26 07:47:11;;;;;;;4.38;2.60;;;;;;;17.91;44.37;100858.97;5069764;28;20051;-79
2023/07/26 07:49:43;;;;;;;4.93;2.45;;;;;;;17.97;44.53;100858.25;5066622;28;20099;-80
2023/07/26 07:52:11;;;;;;;5.07;2.67;;;;;;;18.04;44.62;100867.53;5070844;28;20105;-84
2023/07/26 07:54:38;;;;;;;5.25;2.40;;;;;;;18.11;44.38;100860.22;5054105;28;20051;-85
2023/07/26 07:57:08;;;;;;;4.07;2.58;;;;;;;18.21;44.21;100857.22;5061939;28;20048;-80
2023/07/26 07:59:36;;;;;;;5.18;2.30;;;;;;;18.27;44.55;100855.59;5066794;28;20040;-82
2023/07/26 08:02:04;;;;;;;6.45;2.60;;;;;;;18.34;44.01;100859.34;5051143;28;20054;-79
2023/07/26 08:04:32;;;;;;;4.65;2.90;;;;;;;18.42;44.09;100859.28;5069281;28;20041;-81
2023/07/26 08:07:01;;;;;;;5.30;2.78;;;;;;;18.49;43.73;100863.94;5045935;28;20048;-79
2023/07/26 08:09:29;;;;;;;4.68;2.47;;;;;;;18.58;43.88;100863.88;5071094;28;20051;-78
2023/07/26 08:11:57;;;;;;;5.00;2.88;;;;;;;18.63;43.75;100856.72;5066672;28;20458;-81
2023/07/26 08:14:27;;;;;;;4.90;2.90;;;;;;;18.72;43.13;100869.44;5070446;28;20119;-79
2023/07/26 08:16:55;;;;;;;3.65;2.15;;;;;;;18.75;43.80;100865.44;5067569;28;20115;-79
2023/07/26 08:19:24;;;;;;;4.05;2.20;;;;;;;18.81;43.33;100865.53;5066047;28;20053;-82
2023/07/26 08:21:52;;;;;;;5.25;2.17;;;;;;;18.86;43.37;100865.84;5054424;28;20071;-83
2023/07/26 08:24:20;;;;;;;5.75;2.25;;;;;;;18.92;42.68;100867.00;5048641;28;20125;-82
2023/07/26 08:26:48;;;;;;;5.75;2.50;;;;;;;18.95;42.96;100869.41;5036432;28;20045;-80
2023/07/26 08:29:16;;;;;;;5.32;2.80;;;;;;;18.99;42.36;100869.88;5068193;28;20068;-81
2023/07/26 08:31:46;;;;;;;5.72;2.45;;;;;;;19.02;42.02;100869.50;5068596;28;20132;-81
2023/07/26 08:34:14;;;;;;;4.20;2.33;;;;;;;19.03;42.41;100868.47;5049183;28;20469;-83
2023/07/26 08:36:42;;;;;;;6.45;2.97;;;;;;;19.03;41.94;100866.56;5084664;22;20471;-63
2023/07/26 08:39:10;;;;;;;5.45;2.28;;;;;;;19.05;41.73;100864.44;5074050;28;20068;-64
2023/07/26 08:41:59;;;;;;;4.47;2.35;;;;;;;19.07;41.87;100864.25;5075951;28;20105;-72
2023/07/26 08:44:27;;;;;;;4.03;2.47;;;;;;;19.09;41.71;100859.38;5076883;28;20124;-75
2023/07/26 08:46:58;;;;;;;4.97;2.83;;;;;;;19.11;41.38;100863.69;5056058;28;20555;-72
2023/07/26 08:49:26;;;;;;;5.53;2.75;;;;;;;19.11;41.95;100857.28;5074740;28;20044;-72
2023/07/26 08:51:55;;;;;;;5.40;2.97;;;;;;;19.12;41.48;100856.22;5058100;28;20119;-72
2023/07/26 08:54:25;;;;;;;4.32;2.58;;;;;;;19.12;41.56;100846.00;5058352;28;20406;-72
2023/07/26 08:56:54;;;;;;;5.60;2.70;;;;;;;19.13;40.81;100860.75;5075367;28;20442;-72
2023/07/26 08:59:22;;;;;;;4.63;2.45;;;;;;;19.09;40.70;100854.69;5072791;28;20056;-73
2023/07/26 09:01:50;;;;;;;6.00;2.65;;;;;;;19.08;40.78;100850.19;5055933;28;20044;-72
2023/07/26 09:04:32;;;;;;;4.90;2.72;;;;;;;19.09;40.59;100846.38;5076622;28;20040;-73
2023/07/26 09:07:02;;;;;;;4.65;2.67;;;;;;;19.06;40.79;100849.50;5058837;28;20124;-73
2023/07/26 09:09:31;;;;;;;4.70;2.92;;;;;;;19.05;40.82;100842.25;5055827;28;20130;-72
2023/07/26 09:11:59;;;;;;;4.90;2.65;;;;;;;19.05;40.93;100841.41;5071334;28;20094;-73
2023/07/26 09:14:27;;;;;;;5.20;2.83;;;;;;;19.04;40.68;100839.69;5056951;28;20052;-73
2023/07/26 09:16:56;;;;;;;4.88;2.53;;;;;;;19.03;40.31;100841.59;5072492;28;20106;-73
2023/07/26 09:19:29;;;;;;;5.13;2.88;;;;;;;19.04;40.52;100835.00;5053674;28;20105;-73
2023/07/26 09:21:59;;;;;;;4.25;2.60;;;;;;;19.02;40.37;100848.19;5071824;28;20052;-73
2023/07/26 09:24:30;;;;;;;4.38;2.38;;;;;;;19.01;40.29;100837.28;5061664;28;20453;-73
2023/07/26 09:27:04;;;;;;;3.70;2.50;;;;;;;19.03;40.22;100832.41;5073875;28;20341;-72
2023/07/26 09:29:31;;;;;;;5.38;2.65;;;;;;;18.98;40.12;100827.41;5070644;28;20054;-73
2023/07/26 09:32:00;;;;;;;5.13;2.58;;;;;;;18.98;40.58;100829.31;5076620;28;20411;-73
2023/07/26 09:34:29;;;;;;;4.35;2.63;;;;;;;19.00;40.14;100827.22;5075531;28;20035;-73
2023/07/26 09:37:00;;;;;;;5.47;2.70;;;;;;;19.01;40.10;100823.41;5072110;28;20071;-73
2023/07/26 09:39:32;;;;;;;4.70;2.88;;;;;;;19.00;40.41;100824.47;5068085;28;20073;-73
2023/07/26 09:42:04;;;;;;;4.85;2.60;;;;;;;19.01;40.42;100826.19;5052503;28;20712;-73
2023/07/26 09:44:32;;;;;;;3.65;2.30;;;;;;;18.99;40.54;100842.16;5070463;28;20068;-73
2023/07/26 09:47:00;;;;;;;6.20;2.85;;;;;;;19.01;40.77;100870.56;5055348;28;20143;-73
2023/07/26 09:49:29;;;;;;;4.72;2.42;;;;;;;19.00;40.58;100883.56;5078250;28;20050;-74
2023/07/26 09:52:01;;;;;;;4.40;2.50;;;;;;;18.99;41.90;100879.06;5068854;28;20055;-73
2023/07/26 09:54:34;;;;;;;4.70;3.10;;;;;;;18.92;41.65;100882.78;5075205;28;20576;-73
2023/07/26 09:57:04;;;;;;;3.80;2.35;;;;;;;18.81;42.25;100860.00;5067955;28;20360;-73
2023/07/26 09:59:34;;;;;;;4.40;2.13;;;;;;;18.70;42.39;100868.78;5069301;28;20124;-73
2023/07/26 10:02:07;;;;;;;3.92;2.33;;;;;;;18.61;42.61;100874.59;5071639;28;20040;-73
2023/07/26 10:04:44;;;;;;;2.97;1.90;;;;;;;18.49;42.67;100874.16;5075079;28;20072;-73
2023/07/26 10:07:14;;;;;;;3.00;1.77;;;;;;;18.38;42.73;100866.28;5075659;28;20580;-73
2023/07/26 10:09:45;;;;;;;3.25;1.77;;;;;;;18.27;42.35;100862.00;5077631;28;20040;-73
2023/07/26 10:12:14;;;;;;;3.05;1.77;;;;;;;18.14;42.60;100859.00;5056298;28;20056;-73
2023/07/26 10:14:43;;;;;;;4.63;2.00;;;;;;;18.08;43.20;100855.03;5072467;28;20032;-73
2023/07/26 10:17:14;;;;;;;2.85;1.60;;;;;;;18.01;43.59;100844.88;5063315;28;20037;-73
2023/07/26 10:19:46;;;;;;;3.45;2.03;;;;;;;17.93;44.77;100847.69;5061125;28;20036;-73
2023/07/26 10:22:17;;;;;;;4.35;2.03;;;;;;;17.86;44.80;100847.56;5078535;28;20537;-73
2023/07/26 10:24:46;;;;;;;4.13;2.00;;;;;;;17.81;43.84;100855.59;5083510;28;20078;-73
2023/07/26 10:27:14;;;;;;;3.30;2.00;;;;;;;17.73;44.31;100861.97;5070391;28;20071;-73
2023/07/26 10:29:42;;;;;;;3.70;2.25;;;;;;;17.69;44.57;100873.59;5074774;28;20473;-73
2023/07/26 10:32:11;;;;;;;3.35;2.28;;;;;;;17.65;45.34;100873.06;5073718;28;20068;-73
2023/07/26 10:34:39;;;;;;;3.45;2.30;;;;;;;17.64;45.06;100878.81;5060875;28;20067;-73
2023/07/26 10:37:19;;;;;;;4.57;2.60;;;;;;;17.65;46.15;100895.22;5060549;28;20080;-73
2023/07/26 10:39:48;;;;;;;3.92;2.15;;;;;;;17.62;45.85;100886.44;5077383;28;20086;-73
2023/07/26 10:42:24;;;;;;;3.47;2.47;;;;;;;17.66;46.09;100876.72;5075020;28;20046;-72
2023/07/26 10:44:53;;;;;;;4.47;2.45;;;;;;;17.64;46.05;100893.53;5059082;28;20064;-72
2023/07/26 10:47:21;;;;;;;4.20;2.67;;;;;;;17.68;45.50;100886.56;5074468;28;20036;-72
2023/07/26 10:49:50;;;;;;;3.42;2.28;;;;;;;17.72;45.49;100882.41;5072991;28;20053;-72
2023/07/26 10:52:20;;;;;;;3.78;2.50;;;;;;;17.79;45.70;100888.09;5080005;28;20123;-72
2023/07/26 10:54:49;;;;;;;3.55;2.22;;;;;;;17.84;45.50;100879.25;5075046;28;20541;-72
2023/07/26 10:57:20;;;;;;;3.78;2.47;;;;;;;17.89;44.76;100880.44;5060398;28;20083;-72
2023/07/26 11:00:09;;;;;;;4.20;2.47;;;;;;;17.93;44.80;100862.41;5073081;28;20045;-72
2023/07/26 11:02:43;;;;;;;3.83;2.35;;;;;;;17.98;45.05;100856.31;5075600;28;20055;-72
2023/07/26 11:05:14;;;;;;;4.13;2.17;;;;;;;18.03;44.13;100857.50;5071487;28;20040;-72
2023/07/26 11:07:52;;;;;;;3.00;2.08;;;;;;;18.10;43.13;100865.94;5075782;28;20048;-73
2023/07/26 11:10:22;;;;;;;4.30;2.40;;;;;;;18.12;44.02;100869.41;5075305;28;20063;-72
2023/07/26 11:12:51;;;;;;;4.07;2.20;;;;;;;18.15;43.82;100852.38;5057044;28;20044;-73
2023/07/26 11:15:29;;;;;;;4.00;2.25;;;;;;;18.21;43.89;100857.22;5054704;28;20044;-72
2023/07/26 11:18:19;;;;;;;3.90;1.90;;;;;;;18.22;43.52;100844.22;5055840;28;20064;-73
2023/07/26 11:20:50;;;;;;;3.90;2.17;;;;;;;18.26;43.18;100848.34;5060651;28;20398;-73
2023/07/26 11:23:21;;;;;;;3.88;2.30;;;;;;;18.30;42.98;100855.25;5062373;28;20530;-73
2023/07/26 11:25:54;;;;;;;3.42;2.17;;;;;;;18.32;43.49;100855.91;5052523;28;20050;-73
2023/07/26 11:28:22;;;;;;;3.10;2.08;;;;;;;18.35;43.29;100858.31;5064103;28;20457;-73
2023/07/26 11:30:52;;;;;;;3.92;2.20;;;;;;;18.38;43.69;100856.03;5076437;28;20047;-73
2023/07/26 11:33:27;;;;;;;3.10;2.13;;;;;;;18.44;43.23;100859.97;5080553;28;20441;-73